createdAt,value
2022-12-03T00:00:33.421Z,2.70
2022-12-03T00:03:03.392Z,2.74
2022-12-03T00:05:30.372Z,2.73
2022-12-03T00:07:56.809Z,2.70
2022-12-03T00:10:23.549Z,2.75
2022-12-03T00:12:49.980Z,2.72
2022-12-03T00:15:16.439Z,2.72
2022-12-03T00:17:42.819Z,2.76
2022-12-03T00:20:11.562Z,2.74
2022-12-03T00:22:37.991Z,2.76
2022-12-03T00:25:04.850Z,2.77
2022-12-03T00:27:31.290Z,2.81
2022-12-03T00:29:57.680Z,2.84
2022-12-03T00:32:24.205Z,2.80
2022-12-03T00:34:51.008Z,2.81
2022-12-03T00:37:17.713Z,2.75
2022-12-03T00:39:44.076Z,2.73
2022-12-03T00:42:10.509Z,2.75
2022-12-03T00:44:36.949Z,2.72
2022-12-03T00:47:03.423Z,2.70
2022-12-03T00:49:30.127Z,2.76
2022-12-03T00:51:56.560Z,2.83
2022-12-03T00:54:26.974Z,2.79
2022-12-03T00:56:57.927Z,2.81
2022-12-03T00:59:24.438Z,2.74
2022-12-03T01:01:50.847Z,2.76
2022-12-03T01:04:18.620Z,2.82
2022-12-03T01:06:45.093Z,2.81
2022-12-03T01:09:11.487Z,2.77
2022-12-03T01:11:37.844Z,2.77
2022-12-03T01:14:12.848Z,2.85
2022-12-03T01:16:39.821Z,2.87
2022-12-03T01:19:08.087Z,2.84
2022-12-03T01:21:34.546Z,2.84
2022-12-03T01:24:01.007Z,2.83
2022-12-03T01:26:27.614Z,2.85
2022-12-03T01:28:54.049Z,2.82
2022-12-03T01:31:39.220Z,2.81
2022-12-03T01:34:05.798Z,2.78
2022-12-03T01:36:34.168Z,2.75
2022-12-03T01:39:02.147Z,2.75
2022-12-03T01:41:29.518Z,2.79
2022-12-03T01:43:57.473Z,2.86
2022-12-03T01:46:28.249Z,2.85
2022-12-03T01:48:56.064Z,2.82
2022-12-03T01:51:22.745Z,2.87
2022-12-03T01:53:50.901Z,2.85
2022-12-03T01:56:18.318Z,2.88
2022-12-03T01:58:46.256Z,2.89
2022-12-03T02:01:15.870Z,2.89
2022-12-03T02:03:42.818Z,2.92
2022-12-03T02:06:18.055Z,2.99
2022-12-03T02:08:45.170Z,3.07
2022-12-03T02:11:44.348Z,3.13
2022-12-03T02:14:16.577Z,3.07
2022-12-03T02:16:43.980Z,3.13
2022-12-03T02:19:21.543Z,3.16
2022-12-03T02:21:59.831Z,3.19
2022-12-03T02:24:37.332Z,3.16
2022-12-03T02:27:03.867Z,3.08
2022-12-03T02:29:30.649Z,3.12
2022-12-03T02:31:57.267Z,3.20
2022-12-03T02:34:38.424Z,3.20
2022-12-03T02:37:07.457Z,3.25
2022-12-03T02:39:37.336Z,3.25
2022-12-03T02:42:23.838Z,3.29
2022-12-03T02:44:51.137Z,3.26
2022-12-03T02:47:18.184Z,3.28
2022-12-03T02:49:44.892Z,3.29
2022-12-03T02:52:11.617Z,3.23
2022-12-03T02:54:38.180Z,3.22
2022-12-03T02:57:05.064Z,3.26
2022-12-03T02:59:31.702Z,3.22
2022-12-03T03:01:58.284Z,3.19
2022-12-03T03:04:25.167Z,3.17
2022-12-03T03:06:52.172Z,3.17
2022-12-03T03:09:20.229Z,3.12
2022-12-03T03:11:46.663Z,3.19
2022-12-03T03:14:13.367Z,3.21
2022-12-03T03:16:39.969Z,3.27
2022-12-03T03:19:06.404Z,3.30
2022-12-03T03:21:32.841Z,3.25
2022-12-03T03:23:59.176Z,3.28
2022-12-03T03:26:26.215Z,3.27
2022-12-03T03:28:52.648Z,3.32
2022-12-03T03:31:23.013Z,3.28
2022-12-03T03:33:50.688Z,3.24
2022-12-03T03:36:18.095Z,3.28
2022-12-03T03:38:44.594Z,3.33
2022-12-03T03:41:12.537Z,3.34
2022-12-03T03:43:41.226Z,3.28
2022-12-03T03:46:08.557Z,3.26
2022-12-03T03:48:35.538Z,3.19
2022-12-03T03:51:08.580Z,3.19
2022-12-03T03:53:47.881Z,3.20
2022-12-03T03:56:17.451Z,3.22
2022-12-03T03:58:43.872Z,3.22
2022-12-03T04:01:12.744Z,3.25
2022-12-03T04:03:39.543Z,3.22
2022-12-03T04:06:06.463Z,3.17
2022-12-03T04:08:32.807Z,3.26
2022-12-03T04:11:17.811Z,3.27
2022-12-03T04:13:44.203Z,3.19
2022-12-03T04:16:10.764Z,3.10
2022-12-03T04:18:43.316Z,3.10
2022-12-03T04:21:36.624Z,3.11
2022-12-03T04:24:04.175Z,3.12
2022-12-03T04:26:49.261Z,3.07
2022-12-03T04:29:17.621Z,3.12
2022-12-03T04:32:02.558Z,3.13
2022-12-03T04:34:47.807Z,3.16
2022-12-03T04:37:14.579Z,3.19
2022-12-03T04:39:40.945Z,3.15
2022-12-03T04:42:07.714Z,3.12
2022-12-03T04:44:37.536Z,3.14
2022-12-03T04:47:21.535Z,3.08
2022-12-03T04:49:50.641Z,3.04
2022-12-03T04:52:19.116Z,3.05
2022-12-03T04:54:46.142Z,3.01
2022-12-03T04:57:12.641Z,3.08
2022-12-03T04:59:39.544Z,3.14
2022-12-03T05:02:06.924Z,3.17
2022-12-03T05:04:34.086Z,3.06
2022-12-03T05:07:00.507Z,3.00
2022-12-03T05:09:26.982Z,3.01
2022-12-03T05:11:53.356Z,3.03
2022-12-03T05:14:19.818Z,2.96
2022-12-03T05:16:46.180Z,2.95
2022-12-03T05:19:12.668Z,2.97
2022-12-03T05:21:39.029Z,2.96
2022-12-03T05:24:05.830Z,2.90
2022-12-03T05:26:32.181Z,2.92
2022-12-03T05:28:58.640Z,2.97
2022-12-03T05:31:25.055Z,2.90
2022-12-03T05:33:51.540Z,2.98
2022-12-03T05:36:18.023Z,3.03
2022-12-03T05:38:44.372Z,3.07
2022-12-03T05:41:29.599Z,3.04
2022-12-03T05:43:56.056Z,3.01
2022-12-03T05:46:22.970Z,2.98
2022-12-03T05:48:49.359Z,2.98
2022-12-03T05:51:15.823Z,2.96
2022-12-03T05:53:42.240Z,2.95
2022-12-03T05:56:08.620Z,2.94
2022-12-03T05:58:35.142Z,2.97
2022-12-03T06:01:01.543Z,2.97
2022-12-03T06:03:28.175Z,2.94
2022-12-03T06:05:54.648Z,2.94
2022-12-03T06:08:20.999Z,2.96
2022-12-03T06:10:47.435Z,3.01
2022-12-03T06:13:13.915Z,3.09
2022-12-03T06:15:43.757Z,3.13
2022-12-03T06:18:10.640Z,3.09
2022-12-03T06:20:37.041Z,3.05
2022-12-03T06:23:03.465Z,3.05
2022-12-03T06:25:29.912Z,3.01
2022-12-03T06:27:56.265Z,3.06
2022-12-03T06:30:22.677Z,3.18
2022-12-03T06:32:49.086Z,3.23
2022-12-03T06:35:15.520Z,3.20
2022-12-03T06:37:41.904Z,3.19
2022-12-03T06:40:08.704Z,3.12
2022-12-03T06:42:35.091Z,3.10
2022-12-03T06:45:01.628Z,2.94
2022-12-03T06:47:29.556Z,2.96
2022-12-03T06:49:55.932Z,3.01
2022-12-03T06:52:22.421Z,3.05
2022-12-03T06:54:48.779Z,3.06
2022-12-03T06:57:15.327Z,3.03
2022-12-03T06:59:41.775Z,3.00
2022-12-03T07:02:08.226Z,3.01
2022-12-03T07:04:34.667Z,2.93
2022-12-03T07:07:01.071Z,2.85
2022-12-03T07:09:27.745Z,2.86
2022-12-03T07:11:54.117Z,2.92
2022-12-03T07:14:20.713Z,2.93
2022-12-03T07:16:47.508Z,2.89
2022-12-03T07:19:14.210Z,2.97
2022-12-03T07:21:41.042Z,3.03
2022-12-03T07:24:08.127Z,3.00
2022-12-03T07:26:34.501Z,3.03
2022-12-03T07:29:01.072Z,3.12
2022-12-03T07:31:27.505Z,3.18
2022-12-03T07:33:54.674Z,3.21
2022-12-03T07:36:21.051Z,3.12
2022-12-03T07:38:47.444Z,3.10
2022-12-03T07:41:15.422Z,3.06
2022-12-03T07:43:41.801Z,3.13
2022-12-03T07:46:08.481Z,3.07
2022-12-03T07:48:35.049Z,2.94
2022-12-03T07:51:01.433Z,2.87
2022-12-03T07:53:27.897Z,2.91
2022-12-03T07:55:54.317Z,2.95
2022-12-03T07:58:20.750Z,2.94
2022-12-03T08:00:47.334Z,2.90
2022-12-03T08:03:13.754Z,2.94
2022-12-03T08:05:40.099Z,2.98
2022-12-03T08:08:06.676Z,2.97
2022-12-03T08:10:33.144Z,2.91
2022-12-03T08:12:59.602Z,2.93
2022-12-03T08:15:33.685Z,3.02
2022-12-03T08:18:12.740Z,3.02
2022-12-03T08:20:40.985Z,2.95
2022-12-03T08:23:14.656Z,2.90
2022-12-03T08:25:42.244Z,2.86
2022-12-03T08:28:26.689Z,2.89
2022-12-03T08:31:01.321Z,2.95
2022-12-03T08:33:33.457Z,2.93
2022-12-03T08:36:01.876Z,2.84
2022-12-03T08:38:29.601Z,2.80
2022-12-03T08:40:56.027Z,2.80
2022-12-03T08:43:24.665Z,2.82
2022-12-03T08:45:53.418Z,2.79
2022-12-03T08:48:34.202Z,2.84
2022-12-03T08:51:13.498Z,2.88
2022-12-03T08:53:47.600Z,2.86
2022-12-03T08:56:25.776Z,2.83
2022-12-03T08:58:55.616Z,2.82
2022-12-03T09:01:33.680Z,2.85
2022-12-03T09:04:27.693Z,2.78
2022-12-03T09:06:54.891Z,2.72
2022-12-03T09:09:22.828Z,2.79
2022-12-03T09:11:50.114Z,2.72
2022-12-03T09:14:18.839Z,2.68
2022-12-03T09:16:45.649Z,2.62
2022-12-03T09:19:12.151Z,2.58
2022-12-03T09:21:38.555Z,2.67
2022-12-03T09:24:05.189Z,2.78
2022-12-03T09:26:31.531Z,2.79
2022-12-03T09:28:57.938Z,2.73
2022-12-03T09:31:24.483Z,2.63
2022-12-03T09:33:50.904Z,2.59
2022-12-03T09:36:17.312Z,2.64
2022-12-03T09:38:47.760Z,2.57
2022-12-03T09:41:14.911Z,2.52
2022-12-03T09:44:03.140Z,2.58
2022-12-03T09:46:30.006Z,2.59
2022-12-03T09:48:56.619Z,2.59
2022-12-03T09:51:29.488Z,2.64
2022-12-03T09:53:55.971Z,2.59
2022-12-03T09:56:23.434Z,2.63
2022-12-03T09:58:50.378Z,2.67
2022-12-03T10:01:17.680Z,2.62
2022-12-03T10:03:47.735Z,2.60
2022-12-03T10:06:18.213Z,2.61
2022-12-03T10:08:48.331Z,2.63
2022-12-03T10:11:15.784Z,2.71
2022-12-03T10:13:43.370Z,2.70
2022-12-03T10:16:13.135Z,2.69
2022-12-03T10:18:51.979Z,2.64
2022-12-03T10:21:32.161Z,2.66
2022-12-03T10:24:17.003Z,2.70
2022-12-03T10:26:44.750Z,2.65
2022-12-03T10:29:18.926Z,2.57
2022-12-03T10:31:48.888Z,2.59
2022-12-03T10:34:24.205Z,2.57
2022-12-03T10:37:10.046Z,2.55
2022-12-03T10:39:56.941Z,2.55
2022-12-03T10:42:24.872Z,2.53
2022-12-03T10:45:06.470Z,2.54
2022-12-03T10:47:32.990Z,2.54
2022-12-03T10:50:05.564Z,2.54
2022-12-03T10:52:32.576Z,2.43
2022-12-03T10:54:58.972Z,2.40
2022-12-03T10:57:25.492Z,2.46
2022-12-03T10:59:52.051Z,2.52
2022-12-03T11:02:24.152Z,2.52
2022-12-03T11:04:51.540Z,2.48
2022-12-03T11:07:20.258Z,2.55
2022-12-03T11:09:49.659Z,2.47
2022-12-03T11:12:28.045Z,2.48
2022-12-03T11:14:55.028Z,2.48
2022-12-03T11:17:42.295Z,2.57
2022-12-03T11:20:33.338Z,2.64
2022-12-03T11:22:59.895Z,2.63
2022-12-03T11:25:29.063Z,2.58
2022-12-03T11:28:13.845Z,2.46
2022-12-03T11:30:53.355Z,2.46
2022-12-03T11:33:24.647Z,2.52
2022-12-03T11:36:03.407Z,2.52
2022-12-03T11:38:52.970Z,2.54
2022-12-03T11:41:31.707Z,2.58
2022-12-03T11:43:59.611Z,2.59
2022-12-03T11:46:46.429Z,2.54
2022-12-03T11:49:34.115Z,2.53
2022-12-03T11:52:02.474Z,2.56
2022-12-03T11:54:34.459Z,2.66
2022-12-03T11:57:01.367Z,2.66
2022-12-03T11:59:28.018Z,2.54
2022-12-03T12:01:54.397Z,2.58
2022-12-03T12:04:35.653Z,2.57
2022-12-03T12:07:02.620Z,2.47
2022-12-03T12:09:50.535Z,2.50
2022-12-03T12:12:40.672Z,2.53
2022-12-03T12:15:32.851Z,2.43
2022-12-03T12:18:36.735Z,2.51
2022-12-03T12:21:43.679Z,2.53
2022-12-03T12:24:43.053Z,2.52
2022-12-03T12:27:13.971Z,2.50
2022-12-03T12:29:42.106Z,2.53
2022-12-03T12:32:08.526Z,2.56
2022-12-03T12:34:40.253Z,2.54
2022-12-03T12:37:17.357Z,2.50
2022-12-03T12:39:43.801Z,2.47
2022-12-03T12:42:29.788Z,2.41
2022-12-03T12:45:16.269Z,2.42
2022-12-03T12:47:48.284Z,2.40
2022-12-03T12:50:16.516Z,2.41
2022-12-03T12:52:54.660Z,2.41
2022-12-03T12:55:22.885Z,2.36
2022-12-03T12:57:50.502Z,2.40
2022-12-03T13:00:21.224Z,2.43
2022-12-03T13:03:01.115Z,2.47
2022-12-03T13:05:38.229Z,2.51
2022-12-03T13:08:21.326Z,2.54
2022-12-03T13:10:48.368Z,2.47
2022-12-03T13:13:23.898Z,2.53
2022-12-03T13:16:01.376Z,2.46
2022-12-03T13:18:33.199Z,2.42
2022-12-03T13:20:59.764Z,2.44
2022-12-03T13:23:31.056Z,2.40
2022-12-03T13:26:22.331Z,2.41
2022-12-03T13:28:51.892Z,2.42
2022-12-03T13:31:25.550Z,2.45
2022-12-03T13:33:53.295Z,2.45
2022-12-03T13:36:20.903Z,2.38
2022-12-03T13:38:47.508Z,2.26
2022-12-03T13:41:36.948Z,2.17
2022-12-03T13:44:13.417Z,2.07
2022-12-03T13:46:39.850Z,2.07
2022-12-03T13:49:16.253Z,2.18
2022-12-03T13:51:43.510Z,2.18
2022-12-03T13:54:16.228Z,2.13
2022-12-03T13:56:42.706Z,2.13
2022-12-03T13:59:09.277Z,2.17
2022-12-03T14:01:36.240Z,2.13
2022-12-03T14:04:03.709Z,2.10
2022-12-03T14:06:30.467Z,2.11
2022-12-03T14:08:56.864Z,2.03
2022-12-03T14:11:41.911Z,2.04
2022-12-03T14:14:08.355Z,2.10
2022-12-03T14:16:34.751Z,2.13
2022-12-03T14:19:01.213Z,2.17
2022-12-03T14:21:27.663Z,2.17
2022-12-03T14:23:54.087Z,2.16
2022-12-03T14:26:20.506Z,2.17
2022-12-03T14:28:47.013Z,2.26
2022-12-03T14:31:13.417Z,2.28
2022-12-03T14:33:39.799Z,2.33
2022-12-03T14:36:06.360Z,2.33
2022-12-03T14:38:32.799Z,2.17
2022-12-03T14:40:59.184Z,2.11
2022-12-03T14:43:25.561Z,2.12
2022-12-03T14:45:52.047Z,2.14
2022-12-03T14:48:20.621Z,2.10
2022-12-03T14:50:47.030Z,2.11
2022-12-03T14:53:13.401Z,2.08
2022-12-03T14:55:39.824Z,2.07
2022-12-03T14:58:06.207Z,2.12
2022-12-03T15:00:32.629Z,2.15
2022-12-03T15:02:59.061Z,2.20
2022-12-03T15:05:28.892Z,2.18
2022-12-03T15:07:55.874Z,2.14
2022-12-03T15:10:22.395Z,2.19
2022-12-03T15:12:48.752Z,2.17
2022-12-03T15:15:15.212Z,2.34
2022-12-03T15:17:41.759Z,2.25
2022-12-03T15:20:08.749Z,2.15
2022-12-03T15:22:35.100Z,2.13
2022-12-03T15:25:03.297Z,2.35
2022-12-03T15:27:29.780Z,2.32
2022-12-03T15:29:56.475Z,2.47
2022-12-03T15:32:23.082Z,2.33
2022-12-03T15:34:51.285Z,2.18
2022-12-03T15:37:17.751Z,2.04
2022-12-03T15:39:48.378Z,1.94
2022-12-03T15:42:15.359Z,1.80
2022-12-03T15:44:41.716Z,1.68
2022-12-03T15:47:08.144Z,1.75
2022-12-03T15:49:34.588Z,1.75
2022-12-03T15:52:01.079Z,1.80
2022-12-03T15:54:27.516Z,1.80
2022-12-03T15:56:57.245Z,1.77
2022-12-03T15:59:24.159Z,1.82
2022-12-03T16:01:50.612Z,1.78
2022-12-03T16:04:17.196Z,1.80
2022-12-03T16:06:43.572Z,1.67
2022-12-03T16:09:09.978Z,1.69
2022-12-03T16:11:36.411Z,1.77
2022-12-03T16:14:02.847Z,1.83
2022-12-03T16:16:29.365Z,1.84
2022-12-03T16:18:55.819Z,1.88
2022-12-03T16:21:26.627Z,1.87
2022-12-03T16:23:53.697Z,1.88
2022-12-03T16:26:20.069Z,1.93
2022-12-03T16:28:47.836Z,1.97
2022-12-03T16:31:14.302Z,2.05
2022-12-03T16:33:40.694Z,2.16
2022-12-03T16:36:07.297Z,2.04
2022-12-03T16:38:33.726Z,1.83
2022-12-03T16:41:01.210Z,1.81
2022-12-03T16:43:27.999Z,1.85
2022-12-03T16:46:20.143Z,1.81
2022-12-03T16:48:48.172Z,1.78
2022-12-03T16:51:15.408Z,1.74
2022-12-03T16:53:41.977Z,1.64
2022-12-03T16:56:08.743Z,1.64
2022-12-03T16:58:35.148Z,1.71
2022-12-03T17:01:01.787Z,1.84
2022-12-03T17:03:33.677Z,1.84
2022-12-03T17:06:01.152Z,1.85
2022-12-03T17:08:27.811Z,1.80
2022-12-03T17:10:54.344Z,1.72
2022-12-03T17:13:23.038Z,1.81
2022-12-03T17:15:50.514Z,1.83
2022-12-03T17:18:17.116Z,1.77
2022-12-03T17:20:43.547Z,1.57
2022-12-03T17:23:10.085Z,1.46
2022-12-03T17:25:36.505Z,1.34
2022-12-03T17:28:02.952Z,1.40
2022-12-03T17:30:29.316Z,1.48
2022-12-03T17:32:55.719Z,1.57
2022-12-03T17:35:22.133Z,1.62
2022-12-03T17:37:48.574Z,1.58
2022-12-03T17:40:15.582Z,1.57
2022-12-03T17:42:41.982Z,1.58
2022-12-03T17:45:08.737Z,1.52
2022-12-03T17:47:35.126Z,1.58
2022-12-03T17:50:01.803Z,1.56
2022-12-03T17:52:28.190Z,1.52
2022-12-03T17:55:13.193Z,1.59
2022-12-03T17:57:40.979Z,1.59
2022-12-03T18:00:08.091Z,1.53
2022-12-03T18:02:41.663Z,1.38
2022-12-03T18:05:08.728Z,1.30
2022-12-03T18:07:35.288Z,1.33
2022-12-03T18:10:01.786Z,1.39
2022-12-03T18:12:28.296Z,1.40
2022-12-03T18:14:54.731Z,1.39
2022-12-03T18:17:21.172Z,1.39
2022-12-03T18:19:47.564Z,1.44
2022-12-03T18:22:14.270Z,1.42
2022-12-03T18:24:40.822Z,1.35
2022-12-03T18:27:07.441Z,1.32
2022-12-03T18:29:33.848Z,1.29
2022-12-03T18:32:00.293Z,1.31
2022-12-03T18:34:26.958Z,1.27
2022-12-03T18:36:53.490Z,1.23
2022-12-03T18:39:32.931Z,1.19
2022-12-03T18:41:59.316Z,1.18
2022-12-03T18:44:25.910Z,1.17
2022-12-03T18:46:53.843Z,1.22
2022-12-03T18:49:20.476Z,1.20
2022-12-03T18:51:48.303Z,1.18
2022-12-03T18:54:15.043Z,1.26
2022-12-03T18:56:41.631Z,1.28
2022-12-03T18:59:08.758Z,1.23
2022-12-03T19:01:35.435Z,1.29
2022-12-03T19:04:02.347Z,1.30
2022-12-03T19:06:30.361Z,1.31
2022-12-03T19:08:56.851Z,1.33
2022-12-03T19:11:23.686Z,1.35
2022-12-03T19:13:50.268Z,1.36
2022-12-03T19:16:17.167Z,1.31
2022-12-03T19:18:43.683Z,1.34
2022-12-03T19:21:12.799Z,1.27
2022-12-03T19:23:39.979Z,1.19
2022-12-03T19:26:08.544Z,1.10
2022-12-03T19:28:36.072Z,1.19
2022-12-03T19:31:08.112Z,1.28
2022-12-03T19:33:35.048Z,1.19
2022-12-03T19:36:02.645Z,1.25
2022-12-03T19:38:30.093Z,1.32
2022-12-03T19:41:07.195Z,1.30
2022-12-03T19:43:36.334Z,1.23
2022-12-03T19:46:05.198Z,1.13
2022-12-03T19:48:32.431Z,1.13
2022-12-03T19:51:26.231Z,1.05
2022-12-03T19:53:48.540Z,1.07
2022-12-03T19:56:18.459Z,1.03
2022-12-03T19:58:46.067Z,1.09
2022-12-03T20:01:16.008Z,1.15
2022-12-03T20:03:45.330Z,1.16
2022-12-03T20:06:12.913Z,1.05
2022-12-03T20:08:39.304Z,1.03
2022-12-03T20:11:23.764Z,1.03
2022-12-03T20:13:55.622Z,1.06
2022-12-03T20:16:23.547Z,1.12
2022-12-03T20:18:55.570Z,1.24
2022-12-03T20:21:21.973Z,1.24
2022-12-03T20:23:48.390Z,1.25
2022-12-03T20:26:17.601Z,1.17
2022-12-03T20:28:44.662Z,1.18
2022-12-03T20:31:13.671Z,1.15
2022-12-03T20:33:43.169Z,1.04
2022-12-03T20:36:11.458Z,1.02
2022-12-03T20:38:38.190Z,1.12
2022-12-03T20:41:10.163Z,1.14
2022-12-03T20:43:36.674Z,1.19
2022-12-03T20:46:15.419Z,1.20
2022-12-03T20:48:42.924Z,1.12
2022-12-03T20:51:11.814Z,1.06
2022-12-03T20:53:38.966Z,0.99
2022-12-03T20:56:05.995Z,1.03
2022-12-03T20:58:33.219Z,1.02
2022-12-03T21:01:16.198Z,1.06
2022-12-03T21:03:43.675Z,1.09
2022-12-03T21:06:10.261Z,1.15
2022-12-03T21:08:41.410Z,1.16
2022-12-03T21:11:20.895Z,1.17
2022-12-03T21:13:47.816Z,1.16
2022-12-03T21:16:39.481Z,1.23
2022-12-03T21:19:08.056Z,1.34
2022-12-03T21:21:35.356Z,1.41
2022-12-03T21:24:01.792Z,1.46
2022-12-03T21:26:28.304Z,1.39
2022-12-03T21:28:54.731Z,1.34
2022-12-03T21:31:25.162Z,1.30
2022-12-03T21:33:55.778Z,1.29
2022-12-03T21:36:23.420Z,1.25
2022-12-03T21:38:49.866Z,1.18
2022-12-03T21:41:17.302Z,1.10
2022-12-03T21:43:44.320Z,1.17
2022-12-03T21:47:09.876Z,1.20
2022-12-03T21:49:01.076Z,1.27
2022-12-03T21:51:27.503Z,1.31
2022-12-03T21:53:53.927Z,1.25
2022-12-03T21:56:20.539Z,1.26
2022-12-03T21:58:46.972Z,1.21
2022-12-03T22:01:21.982Z,1.11
2022-12-03T22:03:48.892Z,1.15
2022-12-03T22:06:15.862Z,1.14
2022-12-03T22:08:43.155Z,1.17
2022-12-03T22:11:18.707Z,1.20
2022-12-03T22:13:45.489Z,1.22
2022-12-03T22:16:15.226Z,1.27
2022-12-03T22:18:42.334Z,1.29
2022-12-03T22:21:12.710Z,1.22
2022-12-03T22:23:39.964Z,1.23
2022-12-03T22:26:09.084Z,1.31
2022-12-03T22:28:35.512Z,1.35
2022-12-03T22:31:09.283Z,1.32
2022-12-03T22:33:36.450Z,1.30
2022-12-03T22:36:18.081Z,1.28
2022-12-03T22:38:46.971Z,1.30
2022-12-03T22:41:14.149Z,1.28
2022-12-03T22:43:40.658Z,1.35
2022-12-03T22:46:12.147Z,1.28
2022-12-03T22:48:40.126Z,1.26
2022-12-03T22:51:14.168Z,1.22
2022-12-03T22:53:40.647Z,1.21
2022-12-03T22:56:07.124Z,0.98
2022-12-03T22:58:33.772Z,1.01
2022-12-03T23:01:03.086Z,1.01
2022-12-03T23:03:30.208Z,0.95
2022-12-03T23:05:56.662Z,1.02
2022-12-03T23:08:23.205Z,0.95
2022-12-03T23:10:52.197Z,0.91
2022-12-03T23:13:20.193Z,0.97
2022-12-03T23:15:49.039Z,1.03
2022-12-03T23:18:15.473Z,1.03
2022-12-03T23:20:45.026Z,1.07
2022-12-03T23:23:11.557Z,1.19
2022-12-03T23:25:38.285Z,1.22
2022-12-03T23:28:05.501Z,1.29
2022-12-03T23:30:36.068Z,1.22
2022-12-03T23:33:03.860Z,1.21
2022-12-03T23:35:30.313Z,1.23
2022-12-03T23:37:56.763Z,1.22
2022-12-03T23:40:23.129Z,1.25
2022-12-03T23:42:49.760Z,1.30
2022-12-03T23:45:16.140Z,1.29
2022-12-03T23:47:42.542Z,1.24
2022-12-03T23:50:10.924Z,1.20
2022-12-03T23:52:37.336Z,1.10
2022-12-03T23:55:03.975Z,1.05
2022-12-03T23:57:30.385Z,1.13
2022-12-03T23:59:57.060Z,1.15
